createdAt,value
2023-03-17T08:25:32.292Z,954.6900
2023-03-17T08:25:32.292Z,954.6800
2023-03-17T08:26:03.227Z,954.6500
2023-03-17T08:27:01.113Z,954.6300
2023-03-17T08:28:02.453Z,954.6300
2023-03-17T08:29:03.843Z,954.6600
2023-03-17T08:30:05.154Z,954.6700
2023-03-17T08:30:50.682Z,954.6700
2023-03-17T08:31:52.359Z,954.6700
2023-03-17T08:32:53.958Z,954.6600
2023-03-17T08:33:55.337Z,954.6500
2023-03-17T08:34:56.692Z,954.6400
2023-03-17T08:35:58.132Z,954.6300
2023-03-17T08:36:59.472Z,954.6200
2023-03-17T08:38:00.849Z,954.6100
2023-03-17T08:39:02.218Z,954.6000
2023-03-17T08:40:03.578Z,954.6000
2023-03-17T08:41:04.970Z,954.6200
2023-03-17T08:42:06.303Z,954.6200
2023-03-17T08:43:07.702Z,954.6400
2023-03-17T08:44:09.054Z,954.6300
2023-03-17T08:45:10.434Z,954.6200
2023-03-17T08:46:11.824Z,954.6000
2023-03-17T08:47:13.156Z,954.5900
2023-03-17T08:48:14.542Z,954.6000
2023-03-17T08:49:15.920Z,954.6000
2023-03-17T08:50:17.254Z,954.6000
2023-03-17T08:51:20.840Z,954.5800
2023-03-17T08:52:23.477Z,954.5700
2023-03-17T08:53:24.844Z,954.5600
2023-03-17T08:54:26.214Z,954.5400
2023-03-17T09:16:54.117Z,954.5808
2023-03-17T09:17:55.191Z,1806.8804
2023-03-17T09:18:56.259Z,2761.4514
2023-03-17T09:19:57.389Z,3716.0125
2023-03-17T09:21:30.914Z,954.5484
2023-03-17T09:22:32.039Z,1806.7943
2023-03-17T09:23:33.325Z,2761.3047
2023-03-17T09:24:34.458Z,3715.8008
2023-03-17T09:25:35.554Z,4670.2847
2023-03-17T09:26:36.670Z,5624.7715
2023-03-17T09:27:37.794Z,6579.3682
2023-03-17T09:29:39.905Z,8488.7783
2023-03-17T09:30:41.005Z,9443.2725
2023-03-17T09:31:42.499Z,10397.7314
2023-03-17T09:33:12.305Z,954.4196
2023-03-17T09:35:23.551Z,954.4076
2023-03-17T09:36:24.636Z,1806.5493
2023-03-17T09:37:25.756Z,2760.9336
2023-03-17T09:38:26.893Z,3715.3235
2023-03-17T09:39:27.974Z,4669.7070
2023-03-17T09:46:14.720Z,954.3544
2023-03-17T09:47:15.760Z,1806.4772
2023-03-17T09:48:16.853Z,2760.8701
2023-03-17T09:49:17.972Z,3715.2900
2023-03-17T09:50:19.087Z,4669.7349
2023-03-17T09:51:20.180Z,5624.1597
2023-03-17T09:52:21.257Z,6578.5698
2023-03-17T09:53:22.349Z,7532.9595
2023-03-17T09:54:23.436Z,8487.3047
2023-03-17T09:55:24.536Z,9441.6289
2023-03-17T09:56:25.659Z,10395.9639
2023-03-17T09:57:26.753Z,11350.3193
2023-03-17T09:58:27.871Z,12304.6650
2023-03-17T10:00:30.092Z,14213.3076
2023-03-17T10:01:31.213Z,15167.6055
2023-03-17T10:03:33.350Z,17076.1816
2023-03-17T10:04:34.453Z,18030.4629
2023-03-17T10:05:36.183Z,18984.7480
2023-03-17T10:06:37.406Z,19939.0020
2023-03-17T10:07:38.496Z,20893.2363
2023-03-17T10:08:39.619Z,21847.4688
2023-03-17T10:09:40.709Z,22801.6934
2023-03-17T10:10:41.830Z,23755.9160
2023-03-17T10:11:42.900Z,24710.1504
2023-03-17T10:12:44.010Z,25664.4121
2023-03-17T10:13:45.108Z,26618.6816
2023-03-17T10:14:46.218Z,27572.9473
2023-03-17T10:15:47.360Z,28527.2051
2023-03-17T10:16:48.532Z,29481.4453
2023-03-17T10:17:49.609Z,30435.6738
2023-03-17T10:18:50.701Z,31389.8965
2023-03-17T10:20:52.820Z,33298.3477
2023-03-17T10:21:53.980Z,34252.5820
2023-03-17T10:22:55.065Z,35206.7812
2023-03-17T10:23:56.165Z,36160.9648
2023-03-17T10:24:57.236Z,37115.1250
2023-03-17T10:27:16.695Z,954.1376
2023-03-17T10:28:17.643Z,1807.8658
2023-03-17T10:29:18.598Z,2761.9949
2023-03-17T10:30:20.077Z,3716.0791
